createdAt,value
2022-10-02T00:01:46.213Z,3.25
2022-10-02T00:04:19.791Z,3.30
2022-10-02T00:06:50.020Z,4.88
2022-10-02T00:10:01.386Z,4.05
2022-10-02T00:12:32.163Z,8.38
2022-10-02T00:15:24.296Z,4.88
2022-10-02T00:17:57.024Z,3.35
2022-10-02T00:20:34.110Z,4.00
2022-10-02T00:23:06.966Z,3.30
2022-10-02T00:25:55.339Z,3.60
2022-10-02T00:28:32.348Z,3.50
2022-10-02T00:31:24.068Z,2.75
2022-10-02T00:34:24.348Z,3.60
2022-10-02T00:36:58.243Z,4.50
2022-10-02T00:39:41.114Z,3.53
2022-10-02T00:42:12.351Z,4.10
2022-10-02T00:44:52.894Z,3.63
2022-10-02T00:47:37.674Z,3.55
2022-10-02T00:50:38.204Z,3.40
2022-10-02T00:53:45.637Z,3.28
2022-10-02T01:02:43.206Z,3.28
2022-10-02T01:05:12.314Z,3.22
2022-10-02T01:07:44.061Z,2.97
2022-10-02T01:10:14.198Z,2.95
2022-10-02T01:12:42.703Z,2.42
2022-10-02T01:15:14.027Z,2.80
2022-10-02T01:17:42.869Z,3.17
2022-10-02T01:20:18.284Z,3.33
2022-10-02T01:23:09.608Z,2.40
2022-10-02T01:25:37.935Z,1.85
2022-10-02T01:28:06.696Z,1.70
2022-10-02T01:30:37.804Z,3.63
2022-10-02T01:33:06.236Z,4.30
2022-10-02T01:35:38.445Z,3.40
2022-10-02T01:40:42.590Z,4.30
2022-10-02T01:43:21.785Z,2.90
2022-10-02T01:46:01.107Z,3.80
2022-10-02T01:49:06.402Z,3.35
2022-10-02T01:51:45.311Z,2.83
2022-10-02T01:54:32.472Z,3.90
2022-10-02T01:57:13.753Z,2.67
2022-10-02T02:00:06.311Z,2.72
2022-10-02T02:02:54.081Z,3.17
2022-10-02T02:05:35.209Z,2.58
2022-10-02T02:08:11.108Z,2.70
2022-10-02T02:11:01.455Z,2.47
2022-10-02T02:13:35.319Z,2.53
2022-10-02T02:16:19.152Z,3.50
2022-10-02T02:19:22.600Z,3.90
2022-10-02T02:22:20.266Z,4.05
2022-10-02T02:25:00.553Z,3.50
2022-10-02T02:27:35.300Z,3.53
2022-10-02T02:30:08.115Z,7.15
2022-10-02T02:32:40.419Z,4.88
2022-10-02T02:35:15.080Z,3.40
2022-10-02T02:37:45.912Z,2.47
2022-10-02T02:40:19.915Z,2.40
2022-10-02T02:43:11.199Z,2.08
2022-10-02T02:45:49.709Z,2.10
2022-10-02T02:48:26.516Z,1.95
2022-10-02T02:51:01.497Z,2.40
2022-10-02T02:53:39.037Z,3.00
2022-10-02T02:56:11.027Z,2.47
2022-10-02T02:58:43.624Z,2.40
2022-10-02T03:01:12.303Z,2.30
2022-10-02T03:03:40.451Z,2.03
2022-10-02T03:06:38.076Z,2.15
2022-10-02T03:09:12.957Z,2.15
2022-10-02T03:12:05.221Z,2.15
2022-10-02T03:14:56.434Z,1.80
2022-10-02T03:17:45.840Z,1.70
2022-10-02T03:20:32.180Z,2.00
2022-10-02T03:23:09.876Z,1.80
2022-10-02T03:25:48.085Z,1.98
2022-10-02T03:28:37.345Z,2.50
2022-10-02T03:31:09.371Z,2.63
2022-10-02T03:33:39.668Z,2.60
2022-10-02T03:36:08.142Z,1.80
2022-10-02T03:38:36.780Z,2.10
2022-10-02T03:41:04.944Z,1.48
2022-10-02T03:43:33.129Z,1.52
2022-10-02T03:46:01.304Z,2.38
2022-10-02T03:48:29.451Z,1.70
2022-10-02T03:50:58.058Z,1.40
2022-10-02T03:53:31.816Z,1.90
2022-10-02T03:56:06.203Z,1.67
2022-10-02T03:58:36.912Z,1.50
2022-10-02T04:01:34.119Z,2.10
2022-10-02T04:04:12.502Z,2.03
2022-10-02T04:07:13.049Z,1.98
2022-10-02T04:09:51.973Z,1.67
2022-10-02T04:12:27.041Z,1.88
2022-10-02T04:15:17.206Z,2.20
2022-10-02T04:17:58.729Z,3.00
2022-10-02T04:20:43.266Z,2.70
2022-10-02T04:23:27.417Z,2.20
2022-10-02T04:26:26.340Z,2.72
2022-10-02T04:29:28.833Z,2.75
2022-10-02T04:32:23.203Z,3.08
2022-10-02T04:34:51.499Z,3.00
2022-10-02T04:37:47.290Z,2.85
2022-10-02T04:40:24.317Z,2.70
2022-10-02T04:43:22.815Z,2.55
2022-10-02T04:45:50.955Z,2.50
2022-10-02T04:48:37.730Z,3.15
2022-10-02T04:51:23.994Z,2.83
2022-10-02T04:54:01.316Z,2.50
2022-10-02T04:56:56.575Z,2.75
2022-10-02T04:59:43.329Z,2.70
2022-10-02T05:02:30.106Z,1.75
2022-10-02T05:05:18.955Z,1.75
2022-10-02T05:08:05.800Z,1.38
2022-10-02T05:10:45.326Z,1.40
2022-10-02T05:13:41.985Z,1.42
2022-10-02T05:16:41.111Z,1.63
2022-10-02T05:19:21.323Z,0.90
2022-10-02T05:22:03.992Z,1.13
2022-10-02T05:24:56.845Z,1.13
2022-10-02T05:28:05.921Z,1.20
2022-10-02T05:31:02.232Z,1.35
2022-10-02T05:33:51.795Z,1.20
2022-10-02T05:36:28.878Z,1.70
2022-10-02T05:39:23.404Z,1.48
2022-10-02T05:42:25.373Z,1.90
2022-10-02T05:45:06.497Z,1.80
2022-10-02T05:47:43.866Z,2.05
2022-10-02T05:50:30.365Z,2.13
2022-10-02T05:53:13.568Z,1.90
2022-10-02T05:55:59.069Z,2.05
2022-10-02T05:58:39.017Z,2.00
2022-10-02T06:01:23.426Z,1.90
2022-10-02T06:04:11.752Z,1.98
2022-10-02T06:06:51.136Z,2.30
2022-10-02T06:09:28.211Z,2.03
2022-10-02T06:12:05.156Z,2.15
2022-10-02T06:14:42.488Z,2.20
2022-10-02T06:17:33.571Z,2.38
2022-10-02T06:20:22.296Z,2.92
2022-10-02T06:23:22.787Z,2.53
2022-10-02T06:25:56.451Z,2.10
2022-10-02T06:28:51.583Z,2.47
2022-10-02T06:31:23.270Z,3.30
2022-10-02T06:33:53.462Z,2.50
2022-10-02T06:36:45.139Z,3.13
2022-10-02T06:39:44.814Z,3.00
2022-10-02T06:42:37.410Z,2.95
2022-10-02T06:47:59.405Z,3.05
2022-10-02T06:50:46.072Z,3.72
2022-10-02T06:53:28.064Z,3.25
2022-10-02T06:56:14.774Z,3.05
2022-10-02T06:58:45.995Z,3.03
2022-10-02T07:01:43.045Z,3.83
2022-10-02T07:04:34.223Z,4.22
2022-10-02T07:07:43.958Z,5.00
2022-10-02T07:10:39.873Z,5.20
2022-10-02T07:13:31.362Z,5.85
2022-10-02T07:16:14.758Z,5.22
2022-10-02T07:19:07.280Z,5.57
2022-10-02T07:22:39.615Z,5.88
2022-10-02T07:25:40.521Z,6.03
2022-10-02T07:28:29.977Z,5.90
2022-10-02T07:31:05.003Z,6.07
2022-10-02T07:34:10.785Z,5.70
2022-10-02T07:36:38.982Z,5.53
2022-10-02T07:39:13.076Z,5.00
2022-10-02T07:41:57.092Z,5.47
2022-10-02T07:44:48.759Z,4.93
2022-10-02T07:47:35.015Z,5.20
2022-10-02T07:50:29.320Z,4.90
2022-10-02T07:53:04.574Z,5.35
2022-10-02T07:55:36.078Z,4.65
2022-10-02T07:58:27.606Z,5.00
2022-10-02T08:01:01.924Z,5.13
2022-10-02T08:03:39.889Z,4.93
2022-10-02T08:06:08.827Z,5.30
2022-10-02T08:09:02.477Z,5.45
2022-10-02T08:11:38.244Z,6.05
2022-10-02T08:14:19.726Z,6.32
2022-10-02T08:16:53.583Z,5.77
2022-10-02T08:19:34.410Z,4.88
2022-10-02T08:22:26.519Z,5.32
2022-10-02T08:24:58.232Z,5.00
2022-10-02T08:27:49.795Z,4.97
2022-10-02T08:30:18.211Z,4.68
2022-10-02T08:32:46.278Z,5.35
2022-10-02T08:35:19.757Z,5.18
2022-10-02T08:37:58.266Z,4.88
2022-10-02T08:41:01.489Z,4.70
2022-10-02T08:44:03.398Z,3.95
2022-10-02T08:47:22.081Z,3.90
2022-10-02T08:50:31.316Z,4.25
2022-10-02T08:53:29.545Z,4.30
2022-10-02T08:56:25.251Z,4.05
2022-10-02T08:59:30.095Z,3.70
2022-10-02T09:02:26.161Z,3.70
2022-10-02T09:05:23.510Z,4.03
2022-10-02T09:08:22.225Z,3.85
2022-10-02T09:11:27.341Z,3.80
2022-10-02T09:13:55.458Z,4.72
2022-10-02T09:16:42.019Z,4.05
2022-10-02T09:19:25.476Z,4.18
2022-10-02T09:22:17.726Z,4.18
2022-10-02T09:25:14.690Z,4.18
2022-10-02T09:27:49.175Z,4.03
2022-10-02T09:30:27.320Z,4.45
2022-10-02T09:33:31.725Z,4.03
2022-10-02T09:36:15.939Z,4.03
2022-10-02T09:39:16.565Z,4.05
2022-10-02T09:42:22.054Z,3.85
2022-10-02T09:44:52.959Z,4.20
2022-10-02T09:47:42.911Z,3.28
2022-10-02T09:50:44.869Z,3.75
2022-10-02T09:53:56.873Z,3.33
2022-10-02T09:56:57.962Z,3.93
2022-10-02T10:00:07.778Z,2.72
2022-10-02T10:02:55.101Z,2.40
2022-10-02T10:05:51.044Z,2.97
2022-10-02T10:08:37.419Z,2.60
2022-10-02T10:11:11.646Z,3.03
2022-10-02T10:13:55.075Z,2.83
2022-10-02T10:17:00.346Z,2.78
2022-10-02T10:20:20.032Z,2.75
2022-10-02T10:23:13.560Z,2.40
2022-10-02T10:25:47.742Z,2.70
2022-10-02T10:28:21.637Z,2.85
2022-10-02T10:31:11.357Z,2.35
2022-10-02T10:34:03.420Z,2.78
2022-10-02T10:36:37.364Z,2.63
2022-10-02T10:39:11.525Z,2.60
2022-10-02T10:41:51.778Z,2.97
2022-10-02T10:45:03.725Z,2.45
2022-10-02T10:47:34.665Z,2.80
2022-10-02T10:50:11.789Z,2.58
2022-10-02T10:53:17.076Z,3.05
2022-10-02T10:56:03.509Z,3.15
2022-10-02T10:59:07.091Z,2.65
2022-10-02T11:02:06.254Z,3.20
2022-10-02T11:04:47.384Z,2.53
2022-10-02T11:07:48.498Z,2.83
2022-10-02T11:10:52.779Z,2.70
2022-10-02T11:14:11.527Z,2.78
2022-10-02T11:17:07.062Z,2.72
2022-10-02T11:20:12.383Z,7.90
2022-10-02T11:23:11.250Z,3.78
2022-10-02T11:25:54.367Z,4.38
2022-10-02T11:28:37.820Z,5.82
2022-10-02T11:31:18.058Z,6.28
2022-10-02T11:33:55.465Z,6.68
2022-10-02T11:36:42.079Z,6.70
2022-10-02T11:39:25.512Z,7.18
2022-10-02T11:42:27.355Z,7.65
2022-10-02T11:45:08.949Z,7.97
2022-10-02T11:47:58.784Z,7.78
2022-10-02T11:50:45.586Z,7.60
2022-10-02T11:53:44.492Z,5.88
2022-10-02T11:56:28.105Z,6.40
2022-10-02T11:59:02.237Z,5.78
2022-10-02T12:01:54.089Z,5.57
2022-10-02T12:04:48.871Z,5.95
2022-10-02T12:08:00.692Z,5.78
2022-10-02T12:11:03.141Z,5.75
2022-10-02T12:13:49.775Z,5.95
2022-10-02T12:16:50.807Z,6.75
2022-10-02T12:19:26.194Z,10.27
2022-10-02T12:22:13.282Z,38.45
2022-10-02T12:25:12.212Z,4.50
2022-10-02T12:27:52.059Z,4.85
2022-10-02T12:30:54.072Z,3.95
2022-10-02T12:33:31.264Z,4.45
2022-10-02T12:36:06.316Z,4.32
2022-10-02T12:38:59.746Z,3.70
2022-10-02T12:41:47.247Z,4.68
2022-10-02T12:44:22.567Z,4.75
2022-10-02T12:47:00.120Z,4.25
2022-10-02T12:49:35.000Z,3.90
2022-10-02T12:52:33.688Z,3.75
2022-10-02T12:55:30.910Z,6.03
2022-10-02T12:57:59.204Z,4.13
2022-10-02T13:00:53.431Z,3.30
2022-10-02T13:03:21.835Z,3.55
2022-10-02T13:06:08.089Z,4.38
2022-10-02T13:08:51.989Z,4.40
2022-10-02T13:11:41.376Z,3.38
2022-10-02T13:14:37.579Z,3.47
2022-10-02T13:17:10.268Z,3.78
2022-10-02T13:19:41.436Z,3.53
2022-10-02T13:22:18.738Z,4.10
2022-10-02T13:25:23.884Z,3.60
2022-10-02T13:28:21.469Z,4.07
2022-10-02T13:31:03.838Z,3.22
2022-10-02T13:36:52.705Z,3.78
2022-10-02T13:39:30.810Z,3.63
2022-10-02T13:42:12.325Z,4.30
2022-10-02T13:44:52.200Z,4.73
2022-10-02T13:47:43.355Z,3.65
2022-10-02T13:50:42.144Z,3.50
2022-10-02T13:53:29.590Z,3.97
2022-10-02T13:56:21.862Z,2.60
2022-10-02T13:59:08.575Z,3.58
2022-10-02T14:02:02.755Z,3.20
2022-10-02T14:04:46.184Z,3.00
2022-10-02T14:07:35.366Z,2.78
2022-10-02T14:10:47.458Z,2.58
2022-10-02T14:13:46.069Z,2.20
2022-10-02T14:16:25.039Z,2.78
2022-10-02T14:19:06.642Z,2.60
2022-10-02T14:24:43.564Z,2.50
2022-10-02T14:28:00.760Z,2.30
2022-10-02T14:30:37.899Z,2.58
2022-10-02T14:33:24.682Z,2.88
2022-10-02T14:36:08.948Z,2.17
2022-10-02T14:39:02.034Z,2.05
2022-10-02T14:41:49.158Z,2.55
2022-10-02T14:44:20.332Z,1.85
2022-10-02T14:46:54.498Z,1.50
2022-10-02T14:49:40.474Z,1.85
2022-10-02T14:52:46.737Z,2.05
2022-10-02T14:55:49.885Z,1.90
2022-10-02T14:59:02.863Z,1.50
2022-10-02T15:01:36.590Z,1.85
2022-10-02T15:04:25.897Z,1.80
2022-10-02T15:07:05.940Z,1.45
2022-10-02T15:10:00.102Z,1.40
2022-10-02T15:12:49.445Z,2.30
2022-10-02T15:15:52.389Z,3.10
2022-10-02T15:18:32.911Z,2.95
2022-10-02T15:21:22.394Z,2.33
2022-10-02T15:23:51.827Z,2.03
2022-10-02T15:26:36.919Z,1.77
2022-10-02T15:29:24.567Z,1.30
2022-10-02T15:32:17.434Z,1.10
2022-10-02T15:36:25.759Z,1.23
2022-10-02T15:39:18.099Z,1.20
2022-10-02T15:42:08.639Z,2.03
2022-10-02T15:45:18.042Z,1.55
2022-10-02T15:48:10.436Z,1.15
2022-10-02T15:50:44.798Z,2.03
2022-10-02T15:53:52.080Z,3.00
2022-10-02T15:56:38.692Z,1.33
2022-10-02T15:59:30.401Z,1.67
2022-10-02T16:02:28.452Z,2.03
2022-10-02T16:05:23.043Z,2.78
2022-10-02T16:08:18.509Z,2.83
2022-10-02T16:11:06.761Z,1.65
2022-10-02T16:14:00.924Z,2.08
2022-10-02T16:16:38.023Z,2.30
2022-10-02T16:19:12.633Z,2.45
2022-10-02T16:22:05.580Z,1.73
2022-10-02T16:24:43.018Z,1.60
2022-10-02T16:27:39.232Z,2.10
2022-10-02T16:30:16.233Z,2.00
2022-10-02T16:32:59.260Z,2.17
2022-10-02T16:35:52.154Z,1.95
2022-10-02T16:38:51.757Z,2.58
2022-10-02T16:41:29.311Z,3.35
2022-10-02T16:44:15.277Z,3.58
2022-10-02T16:46:45.533Z,3.38
2022-10-02T16:49:59.526Z,3.95
2022-10-02T16:52:40.320Z,3.45
2022-10-02T16:55:37.630Z,3.92
2022-10-02T16:58:21.118Z,3.45
2022-10-02T17:01:07.394Z,3.13
2022-10-02T17:03:51.150Z,2.28
2022-10-02T17:06:28.750Z,1.77
2022-10-02T17:09:31.982Z,2.63
2022-10-02T17:12:04.186Z,2.40
2022-10-02T17:14:54.370Z,2.00
2022-10-02T17:17:43.240Z,3.70
2022-10-02T17:20:26.929Z,3.42
2022-10-02T17:23:30.165Z,1.90
2022-10-02T17:26:05.039Z,2.13
2022-10-02T17:28:48.626Z,1.67
2022-10-02T17:31:19.578Z,2.75
2022-10-02T17:33:53.334Z,2.15
2022-10-02T17:36:42.460Z,2.28
2022-10-02T17:39:33.225Z,3.50
2022-10-02T17:42:33.202Z,3.70
2022-10-02T17:45:29.687Z,1.90
2022-10-02T17:48:18.245Z,1.60
2022-10-02T17:51:47.110Z,2.65
2022-10-02T17:54:20.264Z,2.08
2022-10-02T17:57:00.275Z,3.53
2022-10-02T17:59:28.588Z,3.20
2022-10-02T18:02:19.261Z,2.75
2022-10-02T18:05:05.714Z,3.05
2022-10-02T18:07:39.947Z,2.30
2022-10-02T18:10:40.413Z,2.67
2022-10-02T18:13:36.886Z,2.60
2022-10-02T18:16:41.382Z,2.97
2022-10-02T18:19:49.170Z,3.53
2022-10-02T18:22:50.565Z,3.83
2022-10-02T18:25:40.333Z,4.00
2022-10-02T18:28:38.992Z,3.33
2022-10-02T18:31:28.835Z,2.85
2022-10-02T18:34:48.684Z,2.78
2022-10-02T18:37:34.073Z,3.53
2022-10-02T18:40:20.211Z,4.78
2022-10-02T18:43:27.053Z,4.68
2022-10-02T18:46:18.873Z,4.90
2022-10-02T18:49:07.762Z,5.35
2022-10-02T18:52:16.219Z,3.90
2022-10-02T18:54:54.504Z,3.88
2022-10-02T18:57:34.149Z,4.28
2022-10-02T19:00:22.087Z,4.60
2022-10-02T19:03:17.857Z,5.80
2022-10-02T19:05:58.855Z,5.90
2022-10-02T19:09:08.073Z,6.65
2022-10-02T19:12:09.875Z,6.28
2022-10-02T19:14:40.202Z,5.97
2022-10-02T19:17:13.561Z,5.97
2022-10-02T19:19:41.979Z,5.95
2022-10-02T19:22:18.025Z,6.50
2022-10-02T19:24:49.879Z,5.28
2022-10-02T19:27:27.794Z,5.00
2022-10-02T19:29:59.185Z,4.50
2022-10-02T19:32:41.155Z,3.65
2022-10-02T19:35:12.406Z,3.90
2022-10-02T19:37:42.970Z,3.57
2022-10-02T19:40:24.122Z,4.40
2022-10-02T19:42:59.610Z,8.25
2022-10-02T19:45:31.330Z,10.10
2022-10-02T19:48:05.937Z,11.27
2022-10-02T19:50:47.504Z,11.55
2022-10-02T19:53:28.923Z,8.63
2022-10-02T19:55:58.987Z,6.10
2022-10-02T19:58:54.187Z,3.80
2022-10-02T20:01:28.300Z,2.03
2022-10-02T20:03:59.419Z,2.15
2022-10-02T20:06:37.329Z,2.78
2022-10-02T20:09:19.658Z,2.55
2022-10-02T20:14:28.734Z,3.60
2022-10-02T20:16:57.122Z,3.60
2022-10-02T20:19:28.990Z,3.55
2022-10-02T20:22:00.858Z,3.10
2022-10-02T20:24:35.768Z,3.10
2022-10-02T20:27:23.347Z,3.63
2022-10-02T20:29:57.924Z,3.13
2022-10-02T20:32:40.648Z,2.95
2022-10-02T20:35:22.890Z,3.67
2022-10-02T20:40:28.418Z,3.65
2022-10-02T20:43:21.536Z,21.17
2022-10-02T20:46:05.846Z,46.22
2022-10-02T20:49:09.728Z,16.30
2022-10-02T20:51:45.758Z,5.22
2022-10-02T20:54:34.613Z,3.58
2022-10-02T20:57:05.663Z,3.20
2022-10-02T20:59:36.880Z,3.03
2022-10-02T21:02:24.252Z,2.83
2022-10-02T21:05:09.519Z,2.90
2022-10-02T21:07:43.726Z,3.20
2022-10-02T21:10:39.464Z,3.05
2022-10-02T21:13:41.491Z,2.33
2022-10-02T21:16:46.436Z,2.80
2022-10-02T21:20:08.610Z,2.40
2022-10-02T21:23:01.025Z,2.73
2022-10-02T21:25:42.569Z,3.30
2022-10-02T21:28:35.797Z,3.27
2022-10-02T21:31:33.336Z,4.45
2022-10-02T21:34:27.234Z,16.70
2022-10-02T21:37:24.579Z,17.38
2022-10-02T21:40:30.008Z,47.63
2022-10-02T21:43:33.538Z,36.25
2022-10-02T21:46:23.376Z,31.65
2022-10-02T21:49:21.731Z,29.60
2022-10-02T21:52:17.174Z,25.33
2022-10-02T21:54:48.641Z,27.38
2022-10-02T21:57:52.280Z,18.42
2022-10-02T22:00:26.853Z,9.35
2022-10-02T22:03:31.993Z,5.63
2022-10-02T22:06:45.482Z,9.02
2022-10-02T22:09:29.919Z,14.98
2022-10-02T22:12:29.653Z,15.10
2022-10-02T22:15:04.072Z,15.32
2022-10-02T22:17:58.616Z,14.30
2022-10-02T22:20:53.631Z,10.80
2022-10-02T22:24:03.139Z,13.15
2022-10-02T22:27:01.236Z,14.65
2022-10-02T22:29:44.466Z,14.90
2022-10-02T22:32:25.004Z,13.55
2022-10-02T22:35:07.837Z,8.63
2022-10-02T22:38:08.118Z,6.75
2022-10-02T22:41:09.084Z,6.25
2022-10-02T22:43:57.750Z,7.65
2022-10-02T22:46:32.280Z,8.02
2022-10-02T22:49:06.861Z,7.72
2022-10-02T22:51:44.478Z,6.97
2022-10-02T22:54:38.502Z,7.78
2022-10-02T22:57:12.642Z,8.73
2022-10-02T22:59:55.505Z,8.80
2022-10-02T23:02:43.629Z,9.63
2022-10-02T23:05:17.418Z,11.20
2022-10-02T23:07:55.849Z,13.43
2022-10-02T23:10:33.339Z,15.63
2022-10-02T23:13:04.303Z,16.27
2022-10-02T23:16:02.501Z,17.60
2022-10-02T23:18:49.211Z,16.48
2022-10-02T23:21:26.235Z,16.67
2022-10-02T23:24:15.168Z,18.08
2022-10-02T23:27:07.618Z,15.57
2022-10-02T23:32:51.337Z,16.40
2022-10-02T23:35:30.035Z,17.10
2022-10-02T23:38:19.885Z,17.08
2022-10-02T23:41:03.235Z,16.98
2022-10-02T23:43:37.379Z,15.73
2022-10-02T23:46:17.847Z,14.95
2022-10-02T23:48:46.642Z,15.60
2022-10-02T23:51:31.976Z,14.50
2022-10-02T23:54:20.598Z,13.45
2022-10-02T23:57:17.295Z,13.90
